Time;durP1;ratioP1;P1;durP2;ratioP2;P2;SDS_P1;SDS_P2;PMS_P1;PMS_P2;Temp;Humidity;BMP_temperature;BMP_pressure;BME280_temperature;BME280_humidity;BME280_pressure;Samples;Min_cycle;Max_cycle;Signal;HPM_P1;HPM_P2
2022/09/07 04:19:56;;;;;;;24.30;20.25;;;;;;;14.80;100.00;100492.88;5555762;32;248350;-89
2022/09/07 04:22:59;;;;;;;23.42;18.60;;;;;;;14.73;100.00;100498.72;5543842;32;33566;-89
2022/09/07 04:26:01;;;;;;;21.02;17.60;;;;;;;14.71;100.00;100493.47;5543655;32;33269;-90
2022/09/07 04:29:05;;;;;;;21.10;17.65;;;;;;;14.74;100.00;100497.75;5548636;32;33991;-90
2022/09/07 04:32:11;;;;;;;17.52;15.27;;;;;;;14.78;100.00;100492.13;5554576;32;33918;-87
2022/09/07 04:35:17;;;;;;;19.62;14.77;;;;;;;14.88;100.00;100494.22;5545839;32;34382;-89
2022/09/07 04:38:20;;;;;;;19.08;14.27;;;;;;;14.94;100.00;100496.50;5546240;32;34848;-87
2022/09/07 04:41:23;;;;;;;16.15;14.05;;;;;;;15.01;100.00;100503.12;5543012;32;33884;-87
2022/09/07 04:44:26;;;;;;;15.43;13.30;;;;;;;15.11;100.00;100505.16;5543061;32;34039;-89
2022/09/07 04:47:31;;;;;;;17.73;14.13;;;;;;;15.15;100.00;100504.87;5543652;32;34575;-87
2022/09/07 04:50:34;;;;;;;14.80;13.20;;;;;;;15.22;100.00;100506.19;5543476;32;33522;-88
2022/09/07 04:53:37;;;;;;;14.50;12.90;;;;;;;15.29;100.00;100511.09;5542704;32;32537;-87
2022/09/07 04:56:39;;;;;;;14.55;12.88;;;;;;;15.35;100.00;100511.53;5541999;32;33298;-87
2022/09/07 04:59:42;;;;;;;14.30;12.80;;;;;;;15.42;100.00;100511.13;5542605;32;33642;-87
2022/09/07 05:02:45;;;;;;;16.83;13.65;;;;;;;15.45;100.00;100510.91;5533244;32;32574;-87
2022/09/07 05:05:48;;;;;;;15.68;12.20;;;;;;;15.50;100.00;100512.31;5536186;32;34183;-88
2022/09/07 05:08:52;;;;;;;13.77;12.07;;;;;;;15.58;100.00;100508.25;5540114;32;34430;-87
2022/09/07 05:11:55;;;;;;;13.98;12.45;;;;;;;15.66;100.00;100495.22;5532719;32;33159;-87
2022/09/07 05:14:57;;;;;;;14.02;11.45;;;;;;;15.77;100.00;100506.03;5542061;32;34232;-87
2022/09/07 05:18:00;;;;;;;14.32;10.88;;;;;;;15.92;100.00;100511.28;5533951;32;34208;-87
2022/09/07 05:21:14;;;;;;;13.10;11.12;;;;;;;16.03;100.00;100518.56;5544662;32;34921;-89
2022/09/07 05:24:17;;;;;;;11.93;10.70;;;;;;;16.13;100.00;100526.78;5528556;32;35314;-87
2022/09/07 05:27:23;;;;;;;14.50;10.82;;;;;;;16.44;100.00;100530.81;5523079;32;34211;-87
2022/09/07 05:30:25;;;;;;;11.95;10.20;;;;;;;16.76;100.00;100537.47;5514804;32;33803;-87
2022/09/07 05:33:50;;;;;;;12.00;10.63;;;;;;;16.95;100.00;100536.94;5525285;32;33387;-87
2022/09/07 05:37:13;;;;;;;12.27;10.52;;;;;;;17.16;100.00;100530.12;5518991;32;34357;-91
2022/09/07 05:40:16;;;;;;;12.60;10.38;;;;;;;17.30;100.00;100526.41;5520924;32;34260;-91
2022/09/07 05:43:21;;;;;;;11.40;10.30;;;;;;;17.51;100.00;100526.59;5525380;32;35481;-92
2022/09/07 05:46:26;;;;;;;13.25;9.48;;;;;;;17.70;100.00;100528.69;5517163;32;33826;-88
2022/09/07 05:49:29;;;;;;;15.48;9.85;;;;;;;17.78;100.00;100522.75;5522406;32;35232;-88
2022/09/07 05:52:32;;;;;;;10.73;9.63;;;;;;;17.91;100.00;100544.12;5514476;32;32190;-88
2022/09/07 05:55:35;;;;;;;14.18;9.45;;;;;;;18.04;100.00;100542.19;5521641;32;33999;-87
2022/09/07 05:58:40;;;;;;;13.75;9.90;;;;;;;18.36;99.22;100537.91;5555515;26;35148;-87
2022/09/07 06:01:43;;;;;;;10.63;9.63;;;;;;;18.53;97.95;100550.00;5536139;32;33761;-86
2022/09/07 06:04:49;;;;;;;11.52;9.52;;;;;;;18.76;95.85;100549.94;5541462;32;33841;-86
2022/09/07 06:07:52;;;;;;;10.43;9.30;;;;;;;18.59;95.84;100537.91;5531135;32;33895;-84
2022/09/07 06:10:57;;;;;;;10.23;9.13;;;;;;;18.72;94.55;100535.91;5541397;32;34611;-84
2022/09/07 06:13:59;;;;;;;11.07;9.70;;;;;;;18.76;93.57;100536.50;5538985;32;33914;-85
2022/09/07 06:17:02;;;;;;;13.25;9.52;;;;;;;18.79;92.95;100543.47;5537792;32;32092;-85
2022/09/07 06:20:06;;;;;;;10.48;9.05;;;;;;;18.85;93.09;100537.59;5529978;32;34054;-87
2022/09/07 06:23:12;;;;;;;10.20;9.13;;;;;;;19.27;90.40;100539.56;5541336;32;34170;-84
2022/09/07 06:26:16;;;;;;;9.52;8.63;;;;;;;19.24;89.59;100537.12;5536605;32;34367;-86
2022/09/07 06:29:19;;;;;;;12.25;8.80;;;;;;;19.65;86.96;100548.91;5538036;32;34392;-86
2022/09/07 06:32:22;;;;;;;9.70;8.80;;;;;;;20.00;84.07;100538.78;5550658;32;32740;-86
2022/09/07 06:35:57;;;;;;;9.40;8.50;;;;;;;20.44;82.73;100543.94;5537678;32;32467;-86
2022/09/07 06:39:00;;;;;;;9.75;8.82;;;;;;;20.76;80.12;100533.09;5527801;32;32872;-86
2022/09/07 06:42:03;;;;;;;9.18;8.13;;;;;;;20.08;82.55;100537.25;5536124;32;33541;-86
2022/09/07 06:45:06;;;;;;;10.15;8.43;;;;;;;20.91;79.57;100538.97;5529817;32;34194;-86
2022/09/07 06:48:09;;;;;;;8.73;7.93;;;;;;;21.07;78.30;100530.31;5530700;32;33860;-86
2022/09/07 06:51:17;;;;;;;9.80;8.80;;;;;;;21.02;78.01;100535.28;5530199;32;33938;-87
2022/09/07 06:54:20;;;;;;;10.65;8.65;;;;;;;21.02;76.80;100529.88;5531542;32;34991;-86
2022/09/07 06:57:43;;;;;;;9.15;8.35;;;;;;;20.64;78.98;100527.81;5528447;32;33708;-86
2022/09/07 07:00:46;;;;;;;11.00;8.57;;;;;;;20.69;78.70;100530.09;5543313;32;34060;-86
2022/09/07 07:03:50;;;;;;;10.27;9.02;;;;;;;21.27;77.25;100533.88;5542783;32;35045;-86
2022/09/07 07:06:53;;;;;;;28.73;9.70;;;;;;;21.41;75.53;100529.84;5543274;32;33959;-90
2022/09/07 07:09:55;;;;;;;10.93;8.48;;;;;;;21.86;73.99;100531.09;5534503;32;32754;-89
2022/09/07 07:12:58;;;;;;;9.38;8.07;;;;;;;21.71;75.53;100528.00;5543433;32;34548;-91
2022/09/07 07:16:08;;;;;;;11.32;8.27;;;;;;;21.91;72.84;100533.34;5543593;32;34486;-90
2022/09/07 07:19:11;;;;;;;9.23;8.05;;;;;;;21.97;72.60;100532.75;5536981;32;33942;-87
2022/09/07 07:22:14;;;;;;;9.20;8.35;;;;;;;21.77;74.12;100532.81;5537427;32;33715;-86
2022/09/07 07:25:37;;;;;;;13.95;8.02;;;;;;;22.30;72.07;100530.50;5533352;32;34267;-87
2022/09/07 07:28:48;;;;;;;9.02;7.82;;;;;;;23.71;66.57;100532.88;5531767;32;32691;-86
2022/09/07 07:32:06;;;;;;;9.98;7.43;;;;;;;24.26;64.10;100531.72;5544768;32;32395;-86
2022/09/07 07:35:13;;;;;;;14.02;7.72;;;;;;;24.35;63.99;100538.03;5537924;32;33901;-89
2022/09/07 07:42:11;;;;;;;8.75;7.80;;;;;;;25.90;57.57;100539.38;1114748;26;20358;-89
2022/09/07 07:45:14;;;;;;;8.63;7.75;;;;;;;25.76;57.14;100530.09;5582924;31;32288;-89
2022/09/07 07:48:36;;;;;;;7.90;7.10;;;;;;;25.40;58.46;100530.44;5579112;31;34114;-90
2022/09/07 07:51:39;;;;;;;7.47;6.78;;;;;;;26.61;55.17;100529.63;5568470;31;33741;-90
2022/09/07 07:55:17;;;;;;;8.40;7.53;;;;;;;26.70;53.53;100528.53;846609;29;20563;-89
2022/09/07 07:58:46;;;;;;;8.93;7.25;;;;;;;27.31;50.97;100530.50;5534144;32;32430;-89
2022/09/07 08:01:48;;;;;;;12.80;9.05;;;;;;;29.10;46.15;100515.31;5553589;26;34067;-90
2022/09/07 08:04:51;;;;;;;9.93;9.02;;;;;;;29.95;42.57;100514.47;5516826;32;33406;-90
2022/09/07 08:19:36;;;;;;;8.57;6.68;;;;;;;28.79;47.18;100518.13;5521437;32;30803;-89
2022/09/07 08:23:11;;;;;;;9.55;6.97;;;;;;;29.24;45.55;100524.44;5583780;26;32595;-90
2022/09/07 08:26:48;;;;;;;7.62;6.78;;;;;;;29.45;44.63;100515.37;5585582;26;33794;-89
2022/09/07 09:16:41;;;;;;;6.68;5.55;;;;;;;30.38;41.99;100473.22;3968769;26;20153;-87
2022/09/07 09:27:09;;;;;;;5.97;5.47;;;;;;;30.31;41.45;100482.50;5597712;26;20099;-90
2022/09/07 09:30:32;;;;;;;10.20;6.07;;;;;;;30.51;40.65;100488.00;5583420;26;34034;-89
2022/09/07 09:37:44;;;;;;;7.40;5.80;;;;;;;31.14;39.86;100484.16;5528677;32;33689;-90
2022/09/07 09:40:56;;;;;;;6.57;5.85;;;;;;;31.87;38.60;100476.91;5523526;32;34347;-90
2022/09/07 09:43:59;;;;;;;6.75;5.97;;;;;;;31.81;38.38;100476.91;5528499;32;34168;-90
2022/09/07 09:47:05;;;;;;;9.50;6.20;;;;;;;30.96;40.08;100473.81;5535047;32;32929;-89
2022/09/07 09:54:40;;;;;;;6.57;5.87;;;;;;;31.58;38.52;100462.62;2018511;26;20365;-89
2022/09/07 10:09:00;;;;;;;11.20;6.20;;;;;;;32.03;37.62;100449.22;5314497;29;20111;-89
2022/09/07 10:16:02;;;;;;;7.47;6.72;;;;;;;32.32;37.64;100445.06;5525993;32;33997;-88
2022/09/07 10:19:19;;;;;;;8.75;6.28;;;;;;;32.10;35.91;100452.78;5549307;32;34401;-88
2022/09/07 10:22:34;;;;;;;10.00;6.40;;;;;;;32.03;37.42;100441.00;5532504;32;35338;-88
2022/09/07 10:25:48;;;;;;;7.37;6.78;;;;;;;31.43;38.02;100443.66;5572192;26;33782;-88
2022/09/07 10:29:16;;;;;;;7.15;6.30;;;;;;;31.55;38.30;100440.28;5533330;32;33216;-88
2022/09/07 10:32:32;;;;;;;7.18;6.47;;;;;;;32.48;36.95;100434.66;5529307;32;34000;-88
2022/09/07 10:35:52;;;;;;;6.65;6.12;;;;;;;32.87;35.54;100431.88;5517736;32;33547;-88
2022/09/07 10:39:17;;;;;;;6.95;6.30;;;;;;;32.78;35.77;100432.12;5540694;32;33939;-90
2022/09/07 10:42:35;;;;;;;6.47;5.93;;;;;;;33.17;34.94;100436.69;5549591;26;34286;-88
2022/09/07 10:45:52;;;;;;;6.00;5.55;;;;;;;33.58;34.12;100428.91;5508848;32;35137;-89
2022/09/07 10:48:58;;;;;;;6.82;6.22;;;;;;;34.52;32.25;100433.22;5510649;32;34657;-89
2022/09/07 11:07:13;;;;;;;7.37;6.28;;;;;;;34.11;32.82;100416.44;2454166;29;20107;-89
2022/09/07 11:10:36;;;;;;;9.18;7.12;;;;;;;32.96;34.66;100413.19;5517629;32;34111;-89
2022/09/07 11:13:42;;;;;;;7.20;6.50;;;;;;;32.24;35.13;100412.41;5522757;32;34451;-88
2022/09/07 11:59:49;;;;;;;10.48;9.52;;;;;;;30.30;39.23;100365.87;5540048;32;32734;-89
2022/09/07 12:03:24;;;;;;;11.12;10.02;;;;;;;30.62;39.55;100369.72;5480621;32;34313;-88
2022/09/07 12:06:52;;;;;;;10.95;10.02;;;;;;;30.34;39.50;100368.03;5530128;32;34375;-88
2022/09/07 12:10:24;;;;;;;12.30;10.70;;;;;;;30.15;41.11;100364.19;5524384;32;32773;-87
2022/09/07 12:14:01;;;;;;;11.43;10.50;;;;;;;29.65;40.39;100361.66;5517396;32;34327;-88
2022/09/07 12:17:36;;;;;;;13.68;12.32;;;;;;;29.49;41.14;100357.38;5515162;32;32433;-88
2022/09/07 12:21:02;;;;;;;13.40;12.18;;;;;;;29.27;39.53;100350.09;5544736;32;33867;-88
2022/09/07 12:24:24;;;;;;;13.07;11.88;;;;;;;28.90;40.80;100349.41;5531430;32;34566;-88
2022/09/07 12:27:27;;;;;;;15.02;13.62;;;;;;;29.06;40.55;100351.00;5520507;32;34253;-88
2022/09/07 12:30:39;;;;;;;14.77;13.45;;;;;;;29.28;39.84;100351.78;5524843;32;32813;-88
2022/09/07 12:33:42;;;;;;;15.65;14.25;;;;;;;29.05;40.38;100347.44;5542082;32;32652;-88
2022/09/07 12:36:48;;;;;;;16.27;14.87;;;;;;;28.94;40.24;100349.88;5524121;32;32597;-88
2022/09/07 12:40:28;;;;;;;17.48;15.70;;;;;;;28.84;40.61;100347.44;5522712;32;32347;-88
2022/09/07 12:43:45;;;;;;;18.37;16.50;;;;;;;29.00;40.11;100346.34;5562619;26;33917;-88
2022/09/07 12:50:32;;;;;;;17.70;15.98;;;;;;;29.03;40.19;100348.69;5378789;29;20096;-88
2022/09/07 12:53:59;;;;;;;16.95;15.45;;;;;;;29.17;40.02;100333.25;5546374;26;34018;-88
2022/09/07 12:57:21;;;;;;;17.42;15.95;;;;;;;29.29;40.11;100331.63;5559810;32;33933;-88
2022/09/07 13:04:34;;;;;;;18.92;17.00;;;;;;;28.98;40.15;100323.88;2897556;26;20105;-88
2022/09/07 13:11:31;;;;;;;19.30;16.92;;;;;;;29.07;40.81;100317.22;845737;29;21049;-88
2022/09/07 13:14:57;;;;;;;19.33;16.75;;;;;;;29.20;41.60;100316.44;5547703;32;32997;-88
2022/09/07 13:18:01;;;;;;;19.17;17.37;;;;;;;29.42;41.78;100314.44;5550083;32;33959;-89
2022/09/07 13:21:06;;;;;;;18.55;16.75;;;;;;;29.35;41.80;100312.75;5548197;32;33786;-88
2022/09/07 13:24:15;;;;;;;18.02;16.30;;;;;;;29.19;41.56;100310.16;5549120;32;34111;-87
2022/09/07 13:28:16;;;;;;;19.30;16.92;;;;;;;29.25;41.57;100303.03;5550579;32;33887;-87
2022/09/07 13:32:03;;;;;;;19.12;17.35;;;;;;;28.97;42.14;100294.87;5542896;32;34061;-87
2022/09/07 13:35:23;;;;;;;17.95;16.25;;;;;;;28.84;43.03;100296.44;5461028;32;32585;-87
2022/09/07 13:38:27;;;;;;;18.45;16.67;;;;;;;29.05;42.19;100300.16;5548411;32;34674;-87
2022/09/07 13:41:41;;;;;;;18.27;16.62;;;;;;;29.09;42.47;100297.87;5520848;32;32767;-90
2022/09/07 13:44:53;;;;;;;16.25;14.93;;;;;;;28.96;42.05;100291.28;5536623;32;33873;-88
2022/09/07 13:48:13;;;;;;;16.52;14.93;;;;;;;28.85;42.72;100284.47;5525148;32;32727;-88
2022/09/07 13:51:49;;;;;;;16.75;15.07;;;;;;;28.95;42.54;100284.16;5535534;32;34285;-89
2022/09/07 13:55:19;;;;;;;15.80;14.18;;;;;;;28.95;42.29;100284.16;5542397;32;33354;-89
2022/09/07 13:58:36;;;;;;;15.40;14.00;;;;;;;28.52;43.90;100266.81;5539503;32;33595;-89
2022/09/07 14:01:45;;;;;;;15.65;14.27;;;;;;;28.46;43.87;100269.50;5575010;26;34522;-90
2022/09/07 14:23:40;;;;;;;15.80;14.20;;;;;;;28.26;44.23;100259.28;1292454;26;20055;-92
2022/09/07 14:26:47;;;;;;;14.55;13.15;;;;;;;28.54;43.39;100261.19;5499358;32;32337;-89
2022/09/07 14:29:50;;;;;;;13.82;12.63;;;;;;;28.43;43.46;100261.72;5493061;32;33670;-90
2022/09/07 14:33:03;;;;;;;14.60;12.95;;;;;;;28.28;44.72;100264.53;5490849;32;35439;-90
2022/09/07 14:36:06;;;;;;;14.25;12.68;;;;;;;28.37;44.54;100264.19;5491752;32;34330;-90
2022/09/07 14:39:36;;;;;;;14.85;13.43;;;;;;;28.21;44.40;100265.28;5490216;32;33223;-88
